createdAt,value
2024-01-16T00:00:25.897Z,54.72
2024-01-16T00:03:27.539Z,54.55
2024-01-16T00:06:29.197Z,54.19
2024-01-16T00:09:33.421Z,54.62
2024-01-16T00:12:34.933Z,54.60
2024-01-16T00:15:36.597Z,54.58
2024-01-16T00:18:38.302Z,54.54
2024-01-16T00:21:44.087Z,54.61
2024-01-16T00:24:45.602Z,54.39
2024-01-16T00:27:47.546Z,54.72
2024-01-16T00:30:49.106Z,54.51
2024-01-16T00:33:50.941Z,54.39
2024-01-16T00:36:52.755Z,54.29
2024-01-16T00:39:54.332Z,54.12
2024-01-16T00:42:55.897Z,54.33
2024-01-16T00:45:57.523Z,54.39
2024-01-16T00:48:59.137Z,54.35
2024-01-16T00:52:00.761Z,54.36
2024-01-16T00:55:02.413Z,54.33
2024-01-16T00:58:04.229Z,54.48
2024-01-16T01:01:05.895Z,54.23
2024-01-16T01:04:07.621Z,54.27
2024-01-16T01:07:11.693Z,54.32
2024-01-16T01:10:13.464Z,54.30
2024-01-16T01:13:15.102Z,54.30
2024-01-16T01:16:16.778Z,54.24
2024-01-16T01:19:19.129Z,54.37
2024-01-16T01:22:20.727Z,54.28
2024-01-16T01:25:22.899Z,54.23
2024-01-16T01:28:24.557Z,54.34
2024-01-16T01:31:27.209Z,54.29
2024-01-16T01:34:28.944Z,54.48
2024-01-16T01:37:30.517Z,54.19
2024-01-16T01:40:32.115Z,54.04
2024-01-16T01:43:33.649Z,54.14
2024-01-16T01:46:36.552Z,54.24
2024-01-16T01:49:38.761Z,54.37
2024-01-16T01:52:41.938Z,54.22
2024-01-16T01:55:43.851Z,54.24
2024-01-16T01:58:48.344Z,54.20
2024-01-16T02:01:53.755Z,54.07
2024-01-16T02:04:55.524Z,54.08
2024-01-16T02:07:57.239Z,54.19
2024-01-16T02:10:58.860Z,54.13
2024-01-16T02:14:00.385Z,54.15
2024-01-16T02:17:01.934Z,54.17
2024-01-16T02:20:03.846Z,54.21
2024-01-16T02:23:07.294Z,54.16
2024-01-16T02:26:09.091Z,54.02
2024-01-16T02:29:10.870Z,53.94
2024-01-16T02:32:14.257Z,53.97
2024-01-16T02:35:16.728Z,53.96
2024-01-16T02:38:18.365Z,54.01
2024-01-16T02:41:20.153Z,53.86
2024-01-16T02:44:21.803Z,54.06
2024-01-16T02:47:23.475Z,54.04
2024-01-16T02:50:25.087Z,54.15
2024-01-16T02:53:26.879Z,54.29
2024-01-16T02:56:28.506Z,54.13
2024-01-16T02:59:31.739Z,54.05
2024-01-16T03:02:33.334Z,53.99
2024-01-16T03:05:35.065Z,54.07
2024-01-16T03:08:36.798Z,53.98
2024-01-16T03:11:38.544Z,54.00
2024-01-16T03:14:40.327Z,53.59
2024-01-16T03:17:42.199Z,53.84
2024-01-16T03:20:44.399Z,53.96
2024-01-16T03:23:46.113Z,53.86
2024-01-16T03:26:48.070Z,53.90
2024-01-16T03:29:49.787Z,53.97
2024-01-16T03:32:51.422Z,53.89
2024-01-16T03:35:53.705Z,54.00
2024-01-16T03:38:55.402Z,53.88
2024-01-16T03:41:57.200Z,53.77
2024-01-16T03:44:58.846Z,54.04
2024-01-16T03:48:00.637Z,54.11
2024-01-16T03:51:03.690Z,54.13
2024-01-16T03:54:05.310Z,53.96
2024-01-16T03:57:06.916Z,53.98
2024-01-16T04:00:11.546Z,53.75
2024-01-16T04:03:14.194Z,53.75
2024-01-16T04:06:19.389Z,53.79
2024-01-16T04:09:21.083Z,53.88
2024-01-16T04:12:23.069Z,53.86
2024-01-16T04:15:24.682Z,53.85
2024-01-16T04:18:26.363Z,53.74
2024-01-16T04:21:27.995Z,53.68
2024-01-16T04:24:29.540Z,53.82
2024-01-16T04:27:31.308Z,53.74
2024-01-16T04:30:32.970Z,53.74
2024-01-16T04:33:34.843Z,53.79
2024-01-16T04:36:36.652Z,53.78
2024-01-16T04:39:38.201Z,53.76
2024-01-16T04:42:39.919Z,53.94
2024-01-16T04:45:41.818Z,53.94
2024-01-16T04:48:43.948Z,53.83
2024-01-16T04:51:45.511Z,53.91
2024-01-16T04:54:47.161Z,53.93
2024-01-16T04:57:48.696Z,53.73
2024-01-16T05:00:50.319Z,53.80
2024-01-16T05:03:51.897Z,53.77
2024-01-16T05:06:53.699Z,53.85
2024-01-16T05:09:56.256Z,53.75
2024-01-16T05:12:57.849Z,53.92
2024-01-16T05:15:59.411Z,53.78
2024-01-16T05:19:01.069Z,54.03
2024-01-16T05:22:02.659Z,53.80
2024-01-16T05:25:04.520Z,53.84
2024-01-16T05:28:06.156Z,53.80
2024-01-16T05:31:08.532Z,53.90
2024-01-16T05:34:11.180Z,53.85
2024-01-16T05:37:13.026Z,53.77
2024-01-16T05:40:14.580Z,53.96
2024-01-16T05:43:16.213Z,53.96
2024-01-16T05:46:17.770Z,53.93
2024-01-16T05:49:19.399Z,54.24
2024-01-16T05:52:21.944Z,54.06
2024-01-16T05:55:23.582Z,53.99
2024-01-16T05:58:25.204Z,54.16
2024-01-16T06:01:28.452Z,54.35
2024-01-16T06:04:30.951Z,54.50
2024-01-16T06:07:32.575Z,54.53
2024-01-16T06:10:34.068Z,55.01
2024-01-16T06:13:35.726Z,54.71
2024-01-16T06:16:37.327Z,54.86
2024-01-16T06:19:39.018Z,54.93
2024-01-16T06:22:40.644Z,54.95
2024-01-16T06:25:42.234Z,54.90
2024-01-16T06:28:43.939Z,54.84
2024-01-16T06:31:45.513Z,54.59
2024-01-16T06:34:47.054Z,54.54
2024-01-16T06:37:48.730Z,54.23
2024-01-16T06:40:50.260Z,54.27
2024-01-16T06:43:54.532Z,54.10
2024-01-16T06:46:56.116Z,54.13
2024-01-16T06:49:57.736Z,53.99
2024-01-16T06:52:59.306Z,54.34
2024-01-16T06:56:00.874Z,54.03
2024-01-16T06:59:02.399Z,54.06
2024-01-16T07:02:04.582Z,54.31
2024-01-16T07:05:06.437Z,54.40
2024-01-16T07:08:09.185Z,54.51
2024-01-16T07:11:14.243Z,54.52
2024-01-16T07:14:15.843Z,54.73
2024-01-16T07:17:17.596Z,54.84
2024-01-16T07:20:19.204Z,54.87
2024-01-16T07:23:20.881Z,54.79
2024-01-16T07:26:23.936Z,54.78
2024-01-16T07:29:25.608Z,54.54
2024-01-16T07:32:28.413Z,54.62
2024-01-16T07:35:31.052Z,54.54
2024-01-16T07:38:33.134Z,54.50
2024-01-16T07:41:35.048Z,54.62
2024-01-16T07:44:38.105Z,54.59
2024-01-16T07:47:39.816Z,54.82
2024-01-16T07:50:41.475Z,54.58
2024-01-16T07:53:43.122Z,54.67
2024-01-16T07:56:44.829Z,54.99
2024-01-16T07:59:46.437Z,54.96
2024-01-16T08:02:48.456Z,54.96
2024-01-16T08:05:50.110Z,54.96
2024-01-16T08:08:51.943Z,54.88
2024-01-16T08:11:53.596Z,54.80
2024-01-16T08:14:55.456Z,54.86
2024-01-16T08:17:57.212Z,54.90
2024-01-16T08:20:58.978Z,54.79
2024-01-16T08:24:00.980Z,54.85
2024-01-16T08:27:03.950Z,54.77
2024-01-16T08:30:08.166Z,54.80
2024-01-16T08:33:10.100Z,54.63
2024-01-16T08:36:11.936Z,54.81
2024-01-16T08:39:14.662Z,54.81
2024-01-16T08:42:19.368Z,54.81
2024-01-16T08:45:21.063Z,54.96
2024-01-16T08:48:22.871Z,54.75
2024-01-16T08:51:24.622Z,54.99
2024-01-16T08:54:27.450Z,54.79
2024-01-16T08:57:31.007Z,54.68
2024-01-16T09:00:32.927Z,55.22
2024-01-16T09:03:35.549Z,55.11
2024-01-16T09:06:37.295Z,55.13
2024-01-16T09:09:39.077Z,55.20
2024-01-16T09:12:40.661Z,55.13
2024-01-16T09:15:42.330Z,54.92
2024-01-16T09:18:44.091Z,54.90
2024-01-16T09:21:45.871Z,54.98
2024-01-16T09:24:47.726Z,54.78
2024-01-16T09:27:49.276Z,54.83
2024-01-16T09:30:51.441Z,54.68
2024-01-16T09:33:53.159Z,54.78
2024-01-16T09:36:54.741Z,54.70
2024-01-16T09:39:56.329Z,55.18
2024-01-16T09:42:57.902Z,54.75
2024-01-16T09:46:03.578Z,54.78
2024-01-16T09:49:05.748Z,54.85
2024-01-16T09:52:07.468Z,54.65
2024-01-16T09:55:09.309Z,54.54
2024-01-16T09:58:15.468Z,54.56
2024-01-16T10:01:17.516Z,54.63
2024-01-16T10:04:19.414Z,54.64
2024-01-16T10:07:26.900Z,54.66
2024-01-16T10:10:38.578Z,54.50
2024-01-16T10:13:51.913Z,54.71
2024-01-16T10:17:06.500Z,54.72
2024-01-16T10:20:14.356Z,54.72
2024-01-16T10:23:27.401Z,54.51
2024-01-16T10:26:29.014Z,54.66
2024-01-16T10:29:43.295Z,54.55
2024-01-16T10:32:54.483Z,54.60
2024-01-16T10:36:18.685Z,54.52
2024-01-16T10:39:20.312Z,54.64
2024-01-16T10:42:21.911Z,54.85
2024-01-16T10:45:23.630Z,54.95
2024-01-16T10:48:25.323Z,55.22
2024-01-16T10:51:28.847Z,55.45
2024-01-16T10:54:31.400Z,55.42
2024-01-16T10:57:33.585Z,55.53
2024-01-16T11:00:40.643Z,55.45
2024-01-16T11:03:53.991Z,55.29
2024-01-16T11:06:56.222Z,55.51
2024-01-16T11:09:58.128Z,55.64
2024-01-16T11:13:03.101Z,55.80
2024-01-16T11:16:05.631Z,55.92
2024-01-16T11:19:24.998Z,55.96
2024-01-16T11:22:31.046Z,56.01
2024-01-16T11:25:35.768Z,56.03
2024-01-16T11:28:37.723Z,56.06
2024-01-16T11:31:39.367Z,55.98
2024-01-16T11:34:43.896Z,56.05
2024-01-16T11:37:46.262Z,55.90
2024-01-16T11:40:48.783Z,55.89
2024-01-16T11:43:53.272Z,55.95
2024-01-16T11:47:01.607Z,56.17
2024-01-16T11:50:14.130Z,56.06
2024-01-16T11:53:38.562Z,55.85
2024-01-16T11:57:08.165Z,55.93
2024-01-16T12:00:19.924Z,55.97
2024-01-16T12:03:31.565Z,55.89
2024-01-16T12:06:38.729Z,55.59
2024-01-16T12:09:40.512Z,55.66
2024-01-16T12:12:43.576Z,55.67
2024-01-16T12:15:45.311Z,55.60
2024-01-16T12:18:48.379Z,55.75
2024-01-16T12:21:51.547Z,55.57
2024-01-16T12:24:57.964Z,55.57
2024-01-16T12:28:00.570Z,55.61
2024-01-16T12:31:04.041Z,55.71
2024-01-16T12:34:10.268Z,55.84
2024-01-16T12:37:13.713Z,55.96
2024-01-16T12:40:15.723Z,56.09
2024-01-16T12:43:19.525Z,56.45
2024-01-16T12:46:21.248Z,56.07
2024-01-16T12:49:26.647Z,56.26
2024-01-16T12:52:30.978Z,56.18
2024-01-16T12:55:34.042Z,56.44
2024-01-16T12:58:37.274Z,56.36
2024-01-16T13:01:43.073Z,56.45
2024-01-16T13:04:44.871Z,56.59
2024-01-16T13:07:47.595Z,56.71
2024-01-16T13:11:03.169Z,56.35
2024-01-16T13:14:04.823Z,56.55
2024-01-16T13:17:07.697Z,56.76
2024-01-16T13:20:11.742Z,56.36
2024-01-16T13:23:15.325Z,56.16
2024-01-16T13:26:17.759Z,56.36
2024-01-16T13:29:20.525Z,56.63
2024-01-16T13:32:22.688Z,56.71
2024-01-16T13:35:24.333Z,56.97
2024-01-16T13:38:26.021Z,56.76
2024-01-16T13:41:28.788Z,56.60
2024-01-16T13:44:30.548Z,56.50
2024-01-16T13:47:32.434Z,56.70
2024-01-16T13:50:34.332Z,56.55
2024-01-16T13:53:36.386Z,56.09
2024-01-16T13:56:51.611Z,55.89
2024-01-16T14:00:00.376Z,56.11
2024-01-16T14:03:04.406Z,56.22
2024-01-16T14:06:08.291Z,56.05
2024-01-16T14:09:10.856Z,55.81
2024-01-16T14:12:13.204Z,55.94
2024-01-16T14:15:17.386Z,55.70
2024-01-16T14:18:19.104Z,55.56
2024-01-16T14:21:20.812Z,55.72
2024-01-16T14:24:22.700Z,55.49
2024-01-16T14:27:26.036Z,55.67
2024-01-16T14:30:28.068Z,55.30
2024-01-16T14:33:29.867Z,55.61
2024-01-16T14:36:31.506Z,55.52
2024-01-16T14:39:33.106Z,55.24
2024-01-16T14:42:35.302Z,55.31
2024-01-16T14:45:36.888Z,55.08
2024-01-16T14:48:45.910Z,55.27
2024-01-16T14:51:48.100Z,55.34
2024-01-16T14:54:51.149Z,55.28
2024-01-16T14:58:00.972Z,55.13
2024-01-16T15:01:02.653Z,55.18
2024-01-16T15:04:07.241Z,55.17
2024-01-16T15:07:09.055Z,54.95
2024-01-16T15:10:16.360Z,55.10
2024-01-16T15:13:18.029Z,54.87
2024-01-16T15:16:19.855Z,54.96
2024-01-16T15:19:21.848Z,54.80
2024-01-16T15:22:23.453Z,54.80
2024-01-16T15:25:25.759Z,54.87
2024-01-16T15:28:27.363Z,54.92
2024-01-16T15:31:30.389Z,54.85
2024-01-16T15:34:31.980Z,54.63
2024-01-16T15:37:34.607Z,54.96
2024-01-16T15:40:36.173Z,54.75
2024-01-16T15:43:38.137Z,55.05
2024-01-16T15:47:03.034Z,54.70
2024-01-16T15:50:06.113Z,54.78
2024-01-16T15:53:07.694Z,54.69
2024-01-16T15:56:09.988Z,55.03
2024-01-16T15:59:12.297Z,54.88
2024-01-16T16:02:13.916Z,54.82
2024-01-16T16:05:15.650Z,54.83
2024-01-16T16:08:17.367Z,54.64
2024-01-16T16:11:18.985Z,54.73
2024-01-16T16:14:20.987Z,54.90
2024-01-16T16:17:22.723Z,54.68
2024-01-16T16:20:25.823Z,54.71
2024-01-16T16:23:27.534Z,54.91
2024-01-16T16:26:32.681Z,54.74
2024-01-16T16:29:34.270Z,54.81
2024-01-16T16:32:36.012Z,54.78
2024-01-16T16:35:37.861Z,54.80
2024-01-16T16:38:42.344Z,54.98
2024-01-16T16:41:44.254Z,54.86
2024-01-16T16:44:45.932Z,54.75
2024-01-16T16:47:47.496Z,55.00
2024-01-16T16:50:49.782Z,55.09
2024-01-16T16:53:51.768Z,55.57
2024-01-16T16:56:55.601Z,55.55
2024-01-16T16:59:57.417Z,55.08
2024-01-16T17:02:59.073Z,55.02
2024-01-16T17:06:01.675Z,55.04
2024-01-16T17:09:07.484Z,55.17
2024-01-16T17:12:09.208Z,55.25
2024-01-16T17:15:12.110Z,55.47
2024-01-16T17:18:13.857Z,55.58
2024-01-16T17:21:17.433Z,55.29
2024-01-16T17:24:19.355Z,55.45
2024-01-16T17:27:21.923Z,55.59
2024-01-16T17:30:23.948Z,55.57
2024-01-16T17:33:26.867Z,55.65
2024-01-16T17:36:29.769Z,55.62
2024-01-16T17:39:31.714Z,55.66
2024-01-16T17:42:33.308Z,55.54
2024-01-16T17:45:34.987Z,55.43
2024-01-16T17:48:37.153Z,55.54
2024-01-16T17:51:39.609Z,55.58
2024-01-16T17:54:41.179Z,55.55
2024-01-16T17:57:42.871Z,55.71
2024-01-16T18:00:44.459Z,55.72
2024-01-16T18:03:48.727Z,55.68
2024-01-16T18:06:50.944Z,55.58
2024-01-16T18:09:52.538Z,55.80
2024-01-16T18:12:54.089Z,56.02
2024-01-16T18:15:58.185Z,55.91
2024-01-16T18:18:59.852Z,55.62
2024-01-16T18:22:03.136Z,55.88
2024-01-16T18:25:09.662Z,55.75
2024-01-16T18:28:11.298Z,55.70
2024-01-16T18:31:13.981Z,55.62
2024-01-16T18:34:21.261Z,55.91
2024-01-16T18:37:22.961Z,56.03
2024-01-16T18:40:25.677Z,55.71
2024-01-16T18:43:29.089Z,55.81
2024-01-16T18:46:34.061Z,55.63
2024-01-16T18:49:35.730Z,55.72
2024-01-16T18:52:42.754Z,55.74
2024-01-16T18:55:44.507Z,55.67
2024-01-16T18:58:47.136Z,55.99
2024-01-16T19:01:50.918Z,55.55
2024-01-16T19:04:52.510Z,55.19
2024-01-16T19:07:54.794Z,55.36
2024-01-16T19:10:57.574Z,55.28
2024-01-16T19:13:59.093Z,55.54
2024-01-16T19:17:00.691Z,55.73
2024-01-16T19:20:10.456Z,55.39
2024-01-16T19:23:12.077Z,55.14
2024-01-16T19:26:15.297Z,54.88
2024-01-16T19:29:18.283Z,54.71
2024-01-16T19:32:19.930Z,54.85
2024-01-16T19:35:21.738Z,54.97
2024-01-16T19:38:23.571Z,55.17
2024-01-16T19:41:25.370Z,55.15
2024-01-16T19:44:27.017Z,55.18
2024-01-16T19:47:29.787Z,54.77
2024-01-16T19:50:32.376Z,54.78
2024-01-16T19:53:38.958Z,54.75
2024-01-16T19:56:43.430Z,54.64
2024-01-16T19:59:45.501Z,54.89
2024-01-16T20:02:47.640Z,54.80
2024-01-16T20:05:49.334Z,54.73
2024-01-16T20:08:53.173Z,54.93
2024-01-16T20:12:00.144Z,54.75
2024-01-16T20:15:04.529Z,54.66
2024-01-16T20:18:10.170Z,54.66
2024-01-16T20:21:12.200Z,54.54
2024-01-16T20:24:13.847Z,54.58
2024-01-16T20:27:15.425Z,55.10
2024-01-16T20:30:17.604Z,54.59
2024-01-16T20:33:19.667Z,54.50
2024-01-16T20:36:21.508Z,54.56
2024-01-16T20:39:23.388Z,54.28
2024-01-16T20:42:24.929Z,54.48
2024-01-16T20:45:26.880Z,54.66
2024-01-16T20:48:33.820Z,54.78
2024-01-16T20:51:35.949Z,54.51
2024-01-16T20:54:40.668Z,54.42
2024-01-16T20:57:43.912Z,54.68
2024-01-16T21:00:46.523Z,54.59
2024-01-16T21:03:49.233Z,54.81
2024-01-16T21:06:51.021Z,54.20
2024-01-16T21:09:52.702Z,54.75
2024-01-16T21:12:54.291Z,54.88
2024-01-16T21:15:57.665Z,54.83
2024-01-16T21:18:59.319Z,54.53
2024-01-16T21:22:01.461Z,54.60
2024-01-16T21:25:03.230Z,54.56
2024-01-16T21:28:04.804Z,54.93
2024-01-16T21:31:07.421Z,54.55
2024-01-16T21:34:09.529Z,54.59
2024-01-16T21:37:11.059Z,54.50
2024-01-16T21:40:12.597Z,54.62
2024-01-16T21:43:14.843Z,54.64
2024-01-16T21:46:17.745Z,54.50
2024-01-16T21:49:19.419Z,54.43
2024-01-16T21:52:21.523Z,54.41
2024-01-16T21:55:23.145Z,54.32
2024-01-16T21:58:24.686Z,54.31
2024-01-16T22:01:26.427Z,54.17
2024-01-16T22:04:28.499Z,54.11
2024-01-16T22:07:30.145Z,54.05
2024-01-16T22:10:31.655Z,54.01
2024-01-16T22:13:33.246Z,53.82
2024-01-16T22:16:35.576Z,54.07
2024-01-16T22:19:37.520Z,54.54
2024-01-16T22:22:41.769Z,54.12
2024-01-16T22:25:43.381Z,53.89
2024-01-16T22:28:45.948Z,53.89
2024-01-16T22:31:47.646Z,53.98
2024-01-16T22:34:49.198Z,54.00
2024-01-16T22:37:50.825Z,53.69
2024-01-16T22:40:52.407Z,54.22
2024-01-16T22:43:55.546Z,54.09
2024-01-16T22:46:57.601Z,53.89
2024-01-16T22:50:00.051Z,53.94
2024-01-16T22:53:03.628Z,54.07
2024-01-16T22:56:05.558Z,53.97
2024-01-16T22:59:08.303Z,53.80
2024-01-16T23:02:11.188Z,54.07
2024-01-16T23:05:21.024Z,53.97
2024-01-16T23:08:22.880Z,53.92
2024-01-16T23:11:25.078Z,53.83
2024-01-16T23:14:26.861Z,54.19
2024-01-16T23:17:28.547Z,53.98
2024-01-16T23:20:31.785Z,53.66
2024-01-16T23:23:33.418Z,54.16
2024-01-16T23:26:36.100Z,53.86
2024-01-16T23:29:39.111Z,54.09
2024-01-16T23:32:40.862Z,54.03
2024-01-16T23:35:44.430Z,53.96
2024-01-16T23:38:46.259Z,54.10
2024-01-16T23:41:47.886Z,54.04
2024-01-16T23:44:50.064Z,54.09
2024-01-16T23:47:53.135Z,53.84
2024-01-16T23:50:55.072Z,53.97
2024-01-16T23:53:57.036Z,54.03
2024-01-16T23:56:59.591Z,53.97
